Archival Weather

Chicago O'Hare International

Chicago, Illinois (KORD)

Report from: Sunday, March 6, 2022 1:51 AM CST
Current time: Saturday, February 4, 2023 11:15 PM CST

Current weather
Weather history
Weather forecast

Temperature15.0°C (59.0°F)
Dew point10.6°C (51.1°F)
Winds 20 kts (10.3 m/s, 23 mph) Southwest (220°)
Wind gusts 44 kts (22.6 m/s, 50.6 mph)
Peak wind 44 kts (22.6 m/s, 50.6 mph) South-Southwest (210°) at 01:45
Visibility10 mi. (16.1 km)
Clouds Scattered clouds 3,700 ft. (1,128 m)
Scattered clouds 15,000 ft. (4,572 m)
Altimeter29.60 in.Hg (1002 mB)
Relative humidity75 %
Density altitude550 ft. (168 m)
Sea-level pressure100.2 kPa (1002 mB, 29.59 in.Hg)
Remarks System requires maintenance
Automated weather observing station with precipitation discriminator
Flight conditions Visual Meteorological Conditions
Raw dataKORD 060751Z 22020G44KT 10SM SCT037 SCT150 15/11 A2960 RMK AO2 PK WND 21044/0745 SLP021 T01500106 $
An unhandled exception has occurred. See browser dev tools for details. Reload 🗙